Pelagos — SZSW — position and weather

sailwx.info

Track history (hours):
 
Tides and Currents Weather Stations Pressure Air Temp Water Temp Dewpoint Dewpoint Depression Visibility Wind Speed Wind Dir Waves Ship Positions

Pelagos

Last reported at 2016-Apr-21 20:10 UTC. Time now 2016-May-04 21:06 UTC.
Position N 54°10' E 004°43'.
Warning: this ship's position is 13 days out of date.

Length 249 m; draft 8 m.

Type: Ship. MMSI: 240335000.

Date/timePositionNaut miles runAvg speedWind from/ knotsBaromVisibWave heightAir tempDewpointWater temp
2016-Apr-21 20:10N 54°10' E 004°43'5 8.8
2016-Apr-21 19:33N 54°04' E 004°40'9 8.9
2016-Apr-21 18:33N 53°56' E 004°36'29 9.2
2016-Apr-21 15:21N 53°36' E 003°59'7 9.0
2016-Apr-21 14:34N 53°32' E 003°49'9 8.7
2016-Apr-21 13:33N 53°25' E 003°41'9 9.1
2016-Apr-21 12:33N 53°16' E 003°35'9 9.0
2016-Apr-21 11:33N 53°08' E 003°29'10 8.9
2016-Apr-21 10:27N 52°59' E 003°23'9 8.6
2016-Apr-21 09:23N 52°51' E 003°17'7 8.4
2016-Apr-21 08:33N 52°45' E 003°11'8 7.6
2016-Apr-21 07:33N 52°37' E 003°08'9 8.0
2016-Apr-21 06:24N 52°28' E 003°10'7 8.4
2016-Apr-21 05:34N 52°21' E 003°12'10 8.7
2016-Apr-21 04:27N 52°13' E 003°22'9 9.3
2016-Apr-21 03:32N 52°08' E 003°33'9 9.3
2016-Apr-21 02:34N 52°05' E 003°46'9 8.8
2016-Apr-21 01:34N 52°01' E 003°59'4 4.1
2016-Apr-21 00:31N 51°58' E 004°04'0 0.0
2016-Apr-20 23:28N 51°58' E 004°04'0 0.0
2016-Apr-20 22:31N 51°58' E 004°04'0 0.0
2016-Apr-20 21:28N 51°58' E 004°04'0 0.0
2016-Apr-20 20:31N 51°58' E 004°04'0 0.0
2016-Apr-20 19:31N 51°58' E 004°04'0 0.0
2016-Apr-20 18:31N 51°58' E 004°04'0 0.0
2016-Apr-20 17:31N 51°58' E 004°04'0 0.0
2016-Apr-20 16:31N 51°58' E 004°04'0 0.0
2016-Apr-20 15:31N 51°58' E 004°04'0 0.0
2016-Apr-20 14:31N 51°58' E 004°04'0 0.0
2016-Apr-20 13:31N 51°58' E 004°04'0 0.0
2016-Apr-20 12:31N 51°58' E 004°04'0 0.0
2016-Apr-20 11:31N 51°58' E 004°04'0 0.0
2016-Apr-20 10:31N 51°58' E 004°04'0 0.0
2016-Apr-20 09:31N 51°58' E 004°04'0 0.0
2016-Apr-20 08:31N 51°58' E 004°04'0 0.0
2016-Apr-20 07:31N 51°58' E 004°04'0 0.0
2016-Apr-20 06:31N 51°58' E 004°04'0 0.0
2016-Apr-20 05:31N 51°58' E 004°04'0 0.0
2016-Apr-20 04:28N 51°58' E 004°04'0 0.0
2016-Apr-20 03:31N 51°58' E 004°04'0 0.0
2016-Apr-20 02:31N 51°58' E 004°04'0 0.0
2016-Apr-20 01:31N 51°58' E 004°04'0 0.0
2016-Apr-20 00:31N 51°58' E 004°04'0 0.0
2016-Apr-19 23:31N 51°58' E 004°04'0 0.0
2016-Apr-19 22:31N 51°58' E 004°04'0 0.0
2016-Apr-19 21:33N 51°58' E 004°04'1 0.9
2016-Apr-19 20:33N 51°59' E 004°04'7 7.1
2016-Apr-19 19:33N 52°01' E 003°53'8 8.4
2016-Apr-19 18:33N 52°06' E 003°42'6 4.2
2016-Apr-19 17:14N 52°10' E 003°36'0 0.1
2016-Apr-19 14:08N 52°10' E 003°36'0 0.0
2016-Apr-19 13:32N 52°10' E 003°36'0 0.0
2016-Apr-19 03:23N 52°10' E 003°36'0 0.1
2016-Apr-19 02:32N 52°10' E 003°36'0 0.0
2016-Apr-19 01:32N 52°10' E 003°36'0 0.0
2016-Apr-19 00:20N 52°10' E 003°36'0 0.0
2016-Apr-18 23:32N 52°10' E 003°36'0 0.0
2016-Apr-18 22:23N 52°10' E 003°36'0 0.0
2016-Apr-18 16:05N 52°10' E 003°36'0 0.1
2016-Apr-18 14:32N 52°10' E 003°36'0 0.0
2016-Apr-18 13:11N 52°10' E 003°36'0 0.0
2016-Apr-18 12:26N 52°10' E 003°36'41310.6
2016-Apr-16 21:33N 57°49' E 010°30'1111.4
2016-Apr-16 20:33N 57°46' E 010°51'1212.2
2016-Apr-16 19:33N 57°38' E 011°08'1212.4
2016-Apr-16 18:33N 57°29' E 011°24'1212.4
2016-Apr-16 17:33N 57°18' E 011°33'1212.5
2016-Apr-16 16:33N 57°06' E 011°40'1212.4
2016-Apr-16 15:33N 56°54' E 011°48'1211.5
2016-Apr-16 14:33N 56°43' E 011°52'1512.2
2016-Apr-16 13:20N 56°30' E 011°38'2110.4
2016-Apr-16 11:21N 56°20' E 011°06'1213.1
2016-Apr-16 10:28N 56°08' E 011°06'1612.1
2016-Apr-16 09:08N 55°54' E 010°52'3111.6
2016-Apr-16 06:26N 55°23' E 011°02'1011.1
2016-Apr-16 05:33N 55°14' E 011°06'1111.1
2016-Apr-16 04:33N 55°03' E 011°00'1312.9
2016-Apr-16 03:33N 54°52' E 010°50'1211.9
2016-Apr-16 02:33N 54°40' E 010°50'1212.1
2016-Apr-16 01:33N 54°37' E 011°10'1313.0
2016-Apr-16 00:33N 54°31' E 011°30'1312.7
2016-Apr-15 23:33N 54°26' E 011°50'1212.2
2016-Apr-15 22:33N 54°27' E 012°12'1410.9
2016-Apr-15 21:16N 54°39' E 012°25'710.0
2016-Apr-15 20:33N 54°43' E 012°35'3711.5
2016-Apr-15 17:19N 54°57' E 013°34'912.4
2016-Apr-15 16:33N 55°01' E 013°50'1212.3
2016-Apr-15 15:33N 55°07' E 014°08'1212.4
2016-Apr-15 14:33N 55°17' E 014°22'1212.4
2016-Apr-15 13:33N 55°26' E 014°35'1212.5
2016-Apr-15 12:33N 55°32' E 014°55'1212.4
2016-Apr-15 11:33N 55°37' E 015°15'1312.5
2016-Apr-15 10:33N 55°41' E 015°36'5112.4
2016-Apr-15 06:27N 55°54' E 017°04'1312.4
2016-Apr-15 05:26N 55°57' E 017°26'1112.4
2016-Apr-15 04:33N 56°00' E 017°44'1212.3
2016-Apr-15 03:33N 56°07' E 018°03'1212.4
2016-Apr-15 02:33N 56°13' E 018°22'26612.1
2016-Apr-14 04:32N 59°40' E 023°38'4012.6
2016-Apr-14 01:24N 59°50' E 024°54'4212.5
2016-Apr-13 22:03N 59°59' E 026°16'612.5
2016-Apr-13 21:33N 60°01' E 026°28'1212.4
2016-Apr-13 20:33N 59°60' E 026°52'1212.1
2016-Apr-13 19:33N 60°03' E 027°16'1212.5
2016-Apr-13 18:33N 60°10' E 027°37'1211.5
2016-Apr-13 17:33N 60°10' E 028°01'1212.0
2016-Apr-13 16:33N 60°08' E 028°24'1111.1
2016-Apr-13 15:33N 60°12' E 028°45'7 7.4
2016-Apr-13 14:33N 60°19' E 028°43'8 0.3
2016-Apr-12 10:33N 60°12' E 028°44'1212.3
2016-Apr-12 09:34N 60°02' E 028°30'1 1.0
2016-Apr-12 08:33N 60°01' E 028°29'0 0.1
2016-Apr-12 07:33N 60°01' E 028°29'0 0.0
2016-Apr-12 06:33N 60°01' E 028°29'0 0.0
2016-Apr-12 05:33N 60°01' E 028°29'0 0.0
2016-Apr-12 04:33N 60°01' E 028°29'0 0.0
2016-Apr-12 03:33N 60°01' E 028°29'0 0.0
2016-Apr-12 02:33N 60°01' E 028°29'0 0.0
2016-Apr-12 01:24N 60°01' E 028°29'0 0.0
2016-Apr-12 00:27N 60°01' E 028°29'0 0.0
2016-Apr-11 23:27N 60°01' E 028°29'0 0.0
2016-Apr-11 22:30N 60°01' E 028°29'0 0.0
2016-Apr-11 21:30N 60°01' E 028°29'0 0.2
2016-Apr-11 20:30N 60°01' E 028°29'  
Track history (hours):
 
Tides and Currents Weather Stations Pressure Air Temp Water Temp Dewpoint Dewpoint Depression Visibility Wind Speed Wind Dir Waves Ship Positions

Pelagos

Last reported at 2016-Apr-21 20:10 UTC. Time now 2016-May-04 21:06 UTC.
Position N 54°10' E 004°43'.
Warning: this ship's position is 13 days out of date.

Length 249 m; draft 8 m.

Type: Ship. MMSI: 240335000.

Date/timePositionNaut miles runAvg speedWind from/ knotsBaromVisibWave heightAir tempDewpointWater temp
2016-Apr-21 20:10N 54°10' E 004°43'5 8.8
2016-Apr-21 19:33N 54°04' E 004°40'9 8.9
2016-Apr-21 18:33N 53°56' E 004°36'29 9.2
2016-Apr-21 15:21N 53°36' E 003°59'7 9.0
2016-Apr-21 14:34N 53°32' E 003°49'9 8.7
2016-Apr-21 13:33N 53°25' E 003°41'9 9.1
2016-Apr-21 12:33N 53°16' E 003°35'9 9.0
2016-Apr-21 11:33N 53°08' E 003°29'10 8.9
2016-Apr-21 10:27N 52°59' E 003°23'9 8.6
2016-Apr-21 09:23N 52°51' E 003°17'7 8.4
2016-Apr-21 08:33N 52°45' E 003°11'8 7.6
2016-Apr-21 07:33N 52°37' E 003°08'9 8.0
2016-Apr-21 06:24N 52°28' E 003°10'7 8.4
2016-Apr-21 05:34N 52°21' E 003°12'10 8.7
2016-Apr-21 04:27N 52°13' E 003°22'9 9.3
2016-Apr-21 03:32N 52°08' E 003°33'9 9.3
2016-Apr-21 02:34N 52°05' E 003°46'9 8.8
2016-Apr-21 01:34N 52°01' E 003°59'4 4.1
2016-Apr-21 00:31N 51°58' E 004°04'0 0.0
2016-Apr-20 23:28N 51°58' E 004°04'0 0.0
2016-Apr-20 22:31N 51°58' E 004°04'0 0.0
2016-Apr-20 21:28N 51°58' E 004°04'0 0.0
2016-Apr-20 20:31N 51°58' E 004°04'0 0.0
2016-Apr-20 19:31N 51°58' E 004°04'0 0.0
2016-Apr-20 18:31N 51°58' E 004°04'0 0.0
2016-Apr-20 17:31N 51°58' E 004°04'0 0.0
2016-Apr-20 16:31N 51°58' E 004°04'0 0.0
2016-Apr-20 15:31N 51°58' E 004°04'0 0.0
2016-Apr-20 14:31N 51°58' E 004°04'0 0.0
2016-Apr-20 13:31N 51°58' E 004°04'0 0.0
2016-Apr-20 12:31N 51°58' E 004°04'0 0.0
2016-Apr-20 11:31N 51°58' E 004°04'0 0.0
2016-Apr-20 10:31N 51°58' E 004°04'0 0.0
2016-Apr-20 09:31N 51°58' E 004°04'0 0.0
2016-Apr-20 08:31N 51°58' E 004°04'0 0.0
2016-Apr-20 07:31N 51°58' E 004°04'0 0.0
2016-Apr-20 06:31N 51°58' E 004°04'0 0.0
2016-Apr-20 05:31N 51°58' E 004°04'0 0.0
2016-Apr-20 04:28N 51°58' E 004°04'0 0.0
2016-Apr-20 03:31N 51°58' E 004°04'0 0.0
2016-Apr-20 02:31N 51°58' E 004°04'0 0.0
2016-Apr-20 01:31N 51°58' E 004°04'0 0.0
2016-Apr-20 00:31N 51°58' E 004°04'0 0.0
2016-Apr-19 23:31N 51°58' E 004°04'0 0.0
2016-Apr-19 22:31N 51°58' E 004°04'0 0.0
2016-Apr-19 21:33N 51°58' E 004°04'1 0.9
2016-Apr-19 20:33N 51°59' E 004°04'7 7.1
2016-Apr-19 19:33N 52°01' E 003°53'8 8.4
2016-Apr-19 18:33N 52°06' E 003°42'6 4.2
2016-Apr-19 17:14N 52°10' E 003°36'0 0.1
2016-Apr-19 14:08N 52°10' E 003°36'0 0.0
2016-Apr-19 13:32N 52°10' E 003°36'0 0.0
2016-Apr-19 03:23N 52°10' E 003°36'0 0.1
2016-Apr-19 02:32N 52°10' E 003°36'0 0.0
2016-Apr-19 01:32N 52°10' E 003°36'0 0.0
2016-Apr-19 00:20N 52°10' E 003°36'0 0.0
2016-Apr-18 23:32N 52°10' E 003°36'0 0.0
2016-Apr-18 22:23N 52°10' E 003°36'0 0.0
2016-Apr-18 16:05N 52°10' E 003°36'0 0.1
2016-Apr-18 14:32N 52°10' E 003°36'0 0.0
2016-Apr-18 13:11N 52°10' E 003°36'0 0.0
2016-Apr-18 12:26N 52°10' E 003°36'41310.6
2016-Apr-16 21:33N 57°49' E 010°30'1111.4
2016-Apr-16 20:33N 57°46' E 010°51'1212.2
2016-Apr-16 19:33N 57°38' E 011°08'1212.4
2016-Apr-16 18:33N 57°29' E 011°24'1212.4
2016-Apr-16 17:33N 57°18' E 011°33'1212.5
2016-Apr-16 16:33N 57°06' E 011°40'1212.4
2016-Apr-16 15:33N 56°54' E 011°48'1211.5
2016-Apr-16 14:33N 56°43' E 011°52'1512.2
2016-Apr-16 13:20N 56°30' E 011°38'2110.4
2016-Apr-16 11:21N 56°20' E 011°06'1213.1
2016-Apr-16 10:28N 56°08' E 011°06'1612.1
2016-Apr-16 09:08N 55°54' E 010°52'3111.6
2016-Apr-16 06:26N 55°23' E 011°02'1011.1
2016-Apr-16 05:33N 55°14' E 011°06'1111.1
2016-Apr-16 04:33N 55°03' E 011°00'1312.9
2016-Apr-16 03:33N 54°52' E 010°50'1211.9
2016-Apr-16 02:33N 54°40' E 010°50'1212.1
2016-Apr-16 01:33N 54°37' E 011°10'1313.0
2016-Apr-16 00:33N 54°31' E 011°30'1312.7
2016-Apr-15 23:33N 54°26' E 011°50'1212.2
2016-Apr-15 22:33N 54°27' E 012°12'1410.9
2016-Apr-15 21:16N 54°39' E 012°25'710.0
2016-Apr-15 20:33N 54°43' E 012°35'3711.5
2016-Apr-15 17:19N 54°57' E 013°34'912.4
2016-Apr-15 16:33N 55°01' E 013°50'1212.3
2016-Apr-15 15:33N 55°07' E 014°08'1212.4
2016-Apr-15 14:33N 55°17' E 014°22'1212.4
2016-Apr-15 13:33N 55°26' E 014°35'1212.5
2016-Apr-15 12:33N 55°32' E 014°55'1212.4
2016-Apr-15 11:33N 55°37' E 015°15'1312.5
2016-Apr-15 10:33N 55°41' E 015°36'5112.4
2016-Apr-15 06:27N 55°54' E 017°04'1312.4
2016-Apr-15 05:26N 55°57' E 017°26'1112.4
2016-Apr-15 04:33N 56°00' E 017°44'1212.3
2016-Apr-15 03:33N 56°07' E 018°03'1212.4
2016-Apr-15 02:33N 56°13' E 018°22'26612.1
2016-Apr-14 04:32N 59°40' E 023°38'4012.6
2016-Apr-14 01:24N 59°50' E 024°54'4212.5
2016-Apr-13 22:03N 59°59' E 026°16'612.5
2016-Apr-13 21:33N 60°01' E 026°28'1212.4
2016-Apr-13 20:33N 59°60' E 026°52'1212.1
2016-Apr-13 19:33N 60°03' E 027°16'1212.5
2016-Apr-13 18:33N 60°10' E 027°37'1211.5
2016-Apr-13 17:33N 60°10' E 028°01'1212.0
2016-Apr-13 16:33N 60°08' E 028°24'1111.1
2016-Apr-13 15:33N 60°12' E 028°45'7 7.4
2016-Apr-13 14:33N 60°19' E 028°43'8 0.3
2016-Apr-12 10:33N 60°12' E 028°44'1212.3
2016-Apr-12 09:34N 60°02' E 028°30'1 1.0
2016-Apr-12 08:33N 60°01' E 028°29'0 0.1
2016-Apr-12 07:33N 60°01' E 028°29'0 0.0
2016-Apr-12 06:33N 60°01' E 028°29'0 0.0
2016-Apr-12 05:33N 60°01' E 028°29'0 0.0
2016-Apr-12 04:33N 60°01' E 028°29'0 0.0
2016-Apr-12 03:33N 60°01' E 028°29'0 0.0
2016-Apr-12 02:33N 60°01' E 028°29'0 0.0
2016-Apr-12 01:24N 60°01' E 028°29'0 0.0
2016-Apr-12 00:27N 60°01' E 028°29'0 0.0
2016-Apr-11 23:27N 60°01' E 028°29'0 0.0
2016-Apr-11 22:30N 60°01' E 028°29'0 0.0
2016-Apr-11 21:30N 60°01' E 028°29'0 0.2
2016-Apr-11 20:30N 60°01' E 028°29'  

Dump ship's entire track history